Time;durP1;ratioP1;P1;durP2;ratioP2;P2;SDS_P1;SDS_P2;PMS_P1;PMS_P2;Temp;Humidity;BMP_temperature;BMP_pressure;BME280_temperature;BME280_humidity;BME280_pressure;Samples;Min_cycle;Max_cycle;Signal;HPM_P1;HPM_P2
2021/11/02 00:00:26;;;;;;;;;1.00;1.00;;;;;10.97;81.45;99324.72;5076357;28;45609;-77
2021/11/02 00:02:51;;;;;;;;;0.50;0.00;;;;;10.96;81.06;99321.25;5076715;28;45602;-76
2021/11/02 00:05:17;;;;;;;;;0.00;0.00;;;;;10.91;81.27;99321.69;5057712;28;45538;-78
2021/11/02 00:07:46;;;;;;;;;0.25;0.25;;;;;10.87;81.38;99312.47;5075925;28;46514;-79
2021/11/02 00:13:37;;;;;;;;;1.75;1.00;;;;;10.89;81.69;99315.78;5075951;28;45720;-77
2021/11/02 00:16:05;;;;;;;;;0.00;0.00;;;;;10.82;81.51;99312.09;5058560;28;45754;-76
2021/11/02 00:18:31;;;;;;;;;0.75;0.75;;;;;10.80;81.61;99300.06;5076341;28;46510;-77
2021/11/02 00:21:00;;;;;;;;;2.50;1.00;;;;;10.88;81.72;99316.75;5076154;28;45777;-77
2021/11/02 00:23:36;;;;;;;;;0.75;0.75;;;;;10.90;81.81;99314.00;5075985;28;45696;-76
2021/11/02 00:29:23;;;;;;;;;0.50;0.00;;;;;10.90;81.97;99308.75;5076238;28;46022;-77
2021/11/02 00:31:49;;;;;;;;;2.00;0.50;;;;;10.83;81.40;99298.03;5075665;28;46988;-79
2021/11/02 00:34:15;;;;;;;;;1.00;1.00;;;;;10.90;81.90;99303.53;5075864;28;45749;-78
2021/11/02 00:36:40;;;;;;;;;0.50;0.00;;;;;10.88;81.81;99306.28;5057866;28;45629;-79
2021/11/02 00:39:06;;;;;;;;;0.00;0.00;;;;;10.86;81.93;99305.59;5075718;28;45615;-78
2021/11/02 00:44:56;;;;;;;;;0.00;0.00;;;;;10.74;81.97;99277.09;5075316;28;45557;-78
2021/11/02 00:47:27;;;;;;;;;1.00;1.00;;;;;10.83;81.94;99290.16;5075537;28;45835;-78
2021/11/02 00:49:53;;;;;;;;;1.00;0.00;;;;;10.81;82.03;99288.63;5075593;28;46465;-78
2021/11/02 00:52:18;;;;;;;;;1.00;0.00;;;;;10.78;82.04;99281.06;5075474;28;46110;-78
2021/11/02 00:54:44;;;;;;;;;0.25;0.25;;;;;10.71;82.29;99266.88;5075808;28;45686;-77
2021/11/02 00:57:10;;;;;;;;;0.75;0.75;;;;;10.71;82.26;99266.88;5075564;28;45502;-77
2021/11/02 00:59:35;;;;;;;;;0.50;0.50;;;;;10.77;82.14;99277.63;5075136;28;45601;-77
2021/11/02 01:02:05;;;;;;;;;1.50;0.00;;;;;10.67;82.18;99257.69;5076468;28;45635;-77
2021/11/02 01:04:30;;;;;;;;;0.00;0.00;;;;;10.78;82.27;99270.59;5075428;28;45720;-78
2021/11/02 01:06:56;;;;;;;;;1.00;0.00;;;;;10.69;82.34;99263.59;5076047;28;45651;-77
2021/11/02 01:09:21;;;;;;;;;1.00;0.00;;;;;10.76;82.32;99272.53;5075894;28;46250;-76
2021/11/02 01:15:09;;;;;;;;;1.00;0.00;;;;;10.68;82.14;99262.78;5083525;28;45531;-77
2021/11/02 01:17:35;;;;;;;;;0.00;0.00;;;;;10.71;82.19;99275.56;5083256;28;45542;-77
2021/11/02 01:20:03;;;;;;;;;0.00;0.00;;;;;10.70;82.28;99271.31;5063370;28;47257;-78
2021/11/02 01:22:28;;;;;;;;;1.00;0.50;;;;;10.68;82.37;99269.81;5078427;28;46304;-78
2021/11/02 01:24:53;;;;;;;;;0.00;0.00;;;;;10.68;82.37;99265.41;5075380;28;45581;-78
2021/11/02 01:27:19;;;;;;;;;1.00;0.00;;;;;10.67;82.55;99265.53;5075964;28;45772;-78
2021/11/02 01:29:44;;;;;;;;;1.00;1.00;;;;;10.70;82.69;99263.44;5076095;28;46699;-77
2021/11/02 01:32:10;;;;;;;;;1.00;1.00;;;;;10.68;82.46;99270.63;5075132;28;46003;-78
2021/11/02 01:34:35;;;;;;;;;1.25;0.00;;;;;10.68;82.76;99264.56;5075048;28;45533;-78
2021/11/02 01:37:00;;;;;;;;;0.00;0.00;;;;;10.65;82.60;99262.22;5075623;28;45575;-77
2021/11/02 01:39:27;;;;;;;;;1.75;0.00;;;;;10.64;82.83;99266.63;5074707;28;47623;-77
2021/11/02 01:45:17;;;;;;;;;0.00;0.00;;;;;10.60;82.72;99257.41;5075007;28;45699;-77
2021/11/02 01:47:46;;;;;;;;;0.00;0.00;;;;;10.59;82.97;99258.38;5074958;28;45605;-77
2021/11/02 01:50:13;;;;;;;;;1.75;0.00;;;;;10.59;82.75;99263.63;5074786;28;45668;-78
2021/11/02 01:52:40;;;;;;;;;0.75;0.00;;;;;10.56;82.67;99260.47;5074438;28;47269;-77
2021/11/02 01:55:11;;;;;;;;;0.75;0.00;;;;;10.57;82.71;99270.81;5074609;28;45860;-78
2021/11/02 01:57:36;;;;;;;;;0.75;0.75;;;;;10.46;83.04;99250.84;5074630;28;45529;-77
2021/11/02 02:00:07;;;;;;;;;1.00;1.00;;;;;10.50;83.25;99262.69;5074355;28;46419;-78
2021/11/02 02:02:42;;;;;;;;;0.25;0.25;;;;;10.56;82.89;99266.53;5074570;28;46118;-77
2021/11/02 02:05:18;;;;;;;;;2.00;1.00;;;;;10.58;83.05;99279.50;5074529;28;45706;-77
2021/11/02 02:08:11;;;;;;;;;1.00;1.00;;;;;10.58;82.82;99271.63;5056634;28;45646;-77
2021/11/02 02:10:52;;;;;;;;;0.50;0.00;;;;;10.58;82.88;99272.44;5073519;28;45839;-77
2021/11/02 02:13:42;;;;;;;;;1.75;1.00;;;;;10.61;82.98;99268.72;5074823;28;45924;-77
2021/11/02 02:16:33;;;;;;;;;1.50;1.00;;;;;10.63;82.96;99266.78;5074536;28;45670;-77
2021/11/02 02:19:17;;;;;;;;;1.00;0.50;;;;;10.61;82.63;99268.72;5063769;28;45767;-77
2021/11/02 02:21:57;;;;;;;;;1.00;1.00;;;;;10.56;82.73;99257.84;5074456;28;46667;-78
2021/11/02 02:24:40;;;;;;;;;2.00;1.00;;;;;10.65;82.74;99262.22;5074059;28;47408;-77
2021/11/02 02:27:27;;;;;;;;;0.00;0.00;;;;;10.54;82.85;99244.88;5074432;28;45688;-78
2021/11/02 02:29:54;;;;;;;;;0.50;0.00;;;;;10.63;82.82;99259.75;5074897;28;45965;-77
2021/11/02 02:32:24;;;;;;;;;1.50;1.00;;;;;10.67;82.93;99263.75;5077008;28;45671;-77
2021/11/02 02:34:52;;;;;;;;;2.25;0.75;;;;;10.70;82.95;99263.44;5078079;28;46172;-77
2021/11/02 02:37:21;;;;;;;;;1.50;0.00;;;;;10.71;82.46;99264.28;5060097;28;45781;-78
2021/11/02 02:39:46;;;;;;;;;1.00;1.00;;;;;10.71;82.61;99262.47;5059649;28;46015;-79
2021/11/02 02:42:14;;;;;;;;;1.75;0.00;;;;;10.73;82.85;99271.03;5059450;28;47935;-78
2021/11/02 02:44:41;;;;;;;;;0.00;0.00;;;;;10.72;82.58;99266.75;5077977;28;46023;-78
2021/11/02 02:47:07;;;;;;;;;1.00;0.00;;;;;10.67;82.82;99248.03;5061063;28;45735;-77
2021/11/02 02:49:33;;;;;;;;;0.75;0.00;;;;;10.78;82.38;99263.56;5080602;28;45512;-76
2021/11/02 02:52:00;;;;;;;;;1.00;0.00;;;;;10.78;82.30;99260.94;5081797;28;45674;-76
2021/11/02 02:54:26;;;;;;;;;0.25;0.00;;;;;10.71;82.48;99236.28;5083101;28;46134;-78
2021/11/02 02:56:52;;;;;;;;;0.75;0.00;;;;;10.84;82.26;99252.53;5083414;28;45648;-76
2021/11/02 02:59:21;;;;;;;;;0.00;0.00;;;;;10.84;82.21;99260.38;5079838;28;45537;-78
2021/11/02 03:01:48;;;;;;;;;0.75;0.75;;;;;10.76;82.34;99234.06;5079686;28;45663;-75
2021/11/02 03:04:18;;;;;;;;;0.00;0.00;;;;;10.84;82.01;99252.53;5077950;28;46063;-78
2021/11/02 03:06:46;;;;;;;;;0.25;0.25;;;;;10.72;82.08;99235.31;5077451;28;45723;-79
2021/11/02 03:09:13;;;;;;;;;1.00;0.00;;;;;10.84;82.16;99243.84;5077854;28;45645;-77
2021/11/02 03:11:41;;;;;;;;;0.50;0.50;;;;;10.85;82.12;99248.91;5077533;28;45539;-78
2021/11/02 03:14:11;;;;;;;;;0.75;0.75;;;;;10.83;81.97;99243.00;5076924;28;45866;-78
2021/11/02 03:16:57;;;;;;;;;0.00;0.00;;;;;10.89;82.09;99250.28;5077440;28;45658;-76
2021/11/02 03:47:59;;;;;;;;;1.00;1.00;;;;;10.84;82.10;99255.13;5076168;28;45533;-78
2021/11/02 03:50:59;;;;;;;;;0.25;0.00;;;;;10.81;82.33;99244.94;5076232;28;45691;-75
2021/11/02 04:32:57;;;;;;;;;0.00;0.00;;;;;10.69;82.15;99253.94;5016910;28;45641;-76
2021/11/02 05:48:30;;;;;;;;;1.25;1.25;;;;;10.52;81.80;99266.00;5075181;28;45439;-77
2021/11/02 05:59:50;;;;;;;;;0.25;0.25;;;;;10.53;81.75;99275.47;5037126;28;45804;-79
2021/11/02 06:02:36;;;;;;;;;1.25;0.25;;;;;10.57;81.60;99283.06;5038789;28;46321;-77
2021/11/02 06:05:26;;;;;;;;;1.00;1.00;;;;;10.54;81.80;99268.44;5038888;28;45500;-77
2021/11/02 06:28:57;;;;;;;;;0.00;0.00;;;;;10.29;81.00;99288.22;5035530;28;45673;-78
2021/11/02 06:31:58;;;;;;;;;0.00;0.00;;;;;10.26;80.69;99288.47;5047085;28;45635;-78
2021/11/02 06:57:35;;;;;;;;;1.00;1.00;;;;;10.15;80.09;99300.88;4974836;28;46114;-78
2021/11/02 08:48:04;;;;;;;;;1.00;1.00;;;;;10.60;77.96;99408.47;5013136;28;45732;-80
2021/11/02 08:50:50;;;;;;;;;0.50;0.25;;;;;10.55;78.45;99416.75;5012643;28;47310;-75
2021/11/02 08:53:15;;;;;;;;;1.00;1.00;;;;;10.61;78.37;99412.75;5024433;28;46166;-78
2021/11/02 08:55:42;;;;;;;;;1.00;0.00;;;;;10.61;78.46;99408.34;5054526;28;45494;-78
2021/11/02 08:58:07;;;;;;;;;0.75;0.25;;;;;10.67;78.12;99420.06;5054903;28;45852;-79
2021/11/02 09:00:34;;;;;;;;;1.00;1.00;;;;;10.63;78.14;99414.28;5075698;28;46601;-78
2021/11/02 09:03:18;;;;;;;;;1.00;1.00;;;;;10.71;78.63;99430.13;5077585;28;45650;-78
2021/11/02 09:05:45;;;;;;;;;1.50;1.00;;;;;10.71;78.39;99413.56;5079386;28;45675;-77
2021/11/02 09:08:12;;;;;;;;;0.50;0.00;;;;;10.75;77.95;99423.63;5080715;28;45810;-78
2021/11/02 09:10:41;;;;;;;;;1.00;1.00;;;;;10.73;77.79;99419.50;5080461;28;47204;-79
2021/11/02 09:13:10;;;;;;;;;1.00;1.00;;;;;10.81;77.73;99422.25;5075845;28;45448;-78
2021/11/02 09:15:37;;;;;;;;;0.50;0.25;;;;;10.78;77.77;99412.88;5056737;28;45617;-76
2021/11/02 09:18:06;;;;;;;;;1.00;1.00;;;;;10.84;77.49;99422.00;5075112;28;45621;-74
2021/11/02 09:20:32;;;;;;;;;1.00;0.75;;;;;10.87;77.90;99413.84;5074948;28;46690;-76
2021/11/02 09:22:57;;;;;;;;;0.00;0.00;;;;;10.92;77.39;99422.94;5076176;28;45989;-76
2021/11/02 09:25:24;;;;;;;;;1.00;0.00;;;;;10.79;77.11;99413.72;5078260;28;45485;-75
2021/11/02 09:27:50;;;;;;;;;0.00;0.00;;;;;10.82;76.88;99432.59;5078697;28;45656;-75
2021/11/02 09:30:18;;;;;;;;;1.00;1.00;;;;;10.83;77.23;99425.56;5078569;28;45614;-75
2021/11/02 09:32:46;;;;;;;;;1.00;0.25;;;;;10.85;77.54;99432.31;5075296;28;46031;-75
2021/11/02 09:35:13;;;;;;;;;0.75;0.75;;;;;10.92;77.07;99436.03;5074566;28;45679;-76
2021/11/02 09:37:42;;;;;;;;;1.00;1.00;;;;;10.94;76.99;99428.03;5074650;28;45791;-75
2021/11/02 09:40:15;;;;;;;;;1.25;1.00;;;;;10.94;76.92;99434.09;5073856;28;47092;-75
2021/11/02 09:43:06;;;;;;;;;0.00;0.00;;;;;10.97;76.88;99426.91;5073712;28;47205;-76
2021/11/02 09:45:44;;;;;;;;;1.00;1.00;;;;;11.05;77.16;99429.69;5055332;28;45661;-76
2021/11/02 09:48:22;;;;;;;;;0.00;0.00;;;;;11.13;77.32;99429.78;5074335;28;45568;-75
2021/11/02 09:51:09;;;;;;;;;1.25;0.00;;;;;11.21;76.40;99429.91;5074537;28;46379;-74
2021/11/02 09:54:10;;;;;;;;;0.00;0.00;;;;;11.25;76.88;99439.97;5074293;28;46584;-75
2021/11/02 10:00:17;;;;;;;;;0.00;0.00;;;;;11.03;75.46;99414.09;4991670;28;45640;-75
2021/11/02 10:02:45;;;;;;;;;0.00;0.00;;;;;11.13;76.17;99433.22;4992114;28;46483;-75
2021/11/02 10:05:39;;;;;;;;;0.50;0.00;;;;;11.16;75.59;99437.38;4991646;28;45685;-74
2021/11/02 10:08:34;;;;;;;;;0.00;0.00;;;;;11.16;75.87;99434.75;4992367;28;45766;-74
2021/11/02 10:11:09;;;;;;;;;0.00;0.00;;;;;11.20;75.95;99436.94;4982187;28;45754;-75
2021/11/02 10:13:49;;;;;;;;;0.00;0.00;;;;;11.20;76.05;99439.56;4991760;28;46318;-77
2021/11/02 10:16:31;;;;;;;;;0.00;0.00;;;;;11.31;76.06;99444.66;4992112;28;46597;-76
2021/11/02 10:19:21;;;;;;;;;1.00;0.25;;;;;11.32;75.96;99450.72;4991648;28;45638;-75
2021/11/02 10:22:18;;;;;;;;;0.00;0.00;;;;;11.19;75.64;99437.91;4991715;28;45611;-75
2021/11/02 10:25:18;;;;;;;;;0.00;0.00;;;;;11.28;75.24;99457.22;4991563;28;46393;-75
2021/11/02 10:31:35;;;;;;;;;0.75;0.00;;;;;11.25;75.25;99475.84;4991598;28;45709;-76
2021/11/02 10:34:08;;;;;;;;;0.25;0.00;;;;;11.27;75.69;99468.69;5020462;28;45881;-74
2021/11/02 10:36:58;;;;;;;;;0.00;0.00;;;;;11.31;75.33;99470.03;5053768;28;45624;-77
2021/11/02 10:39:47;;;;;;;;;0.50;0.00;;;;;11.32;75.48;99469.91;5053926;28;45531;-79
2021/11/02 10:48:48;;;;;;;;;0.25;0.00;;;;;11.51;75.22;99470.81;5053348;28;45636;-77
2021/11/02 10:51:50;;;;;;;;;1.00;0.00;;;;;11.60;74.72;99462.94;5054222;28;46026;-75
2021/11/02 10:54:40;;;;;;;;;0.00;0.00;;;;;11.70;75.20;99461.09;5057469;28;45621;-75
2021/11/02 10:57:24;;;;;;;;;0.75;0.00;;;;;11.78;74.52;99455.13;5057408;28;45768;-76
2021/11/02 10:59:49;;;;;;;;;0.00;0.00;;;;;11.89;74.61;99464.63;5075293;28;45672;-76
2021/11/02 11:02:37;;;;;;;;;1.00;1.00;;;;;11.95;74.26;99461.41;5083077;28;47288;-78
2021/11/02 11:05:07;;;;;;;;;0.00;0.00;;;;;12.05;73.64;99462.19;5080784;28;45623;-76
2021/11/02 11:07:37;;;;;;;;;0.00;0.00;;;;;12.05;73.84;99456.94;5080505;28;45573;-77
2021/11/02 11:10:05;;;;;;;;;0.00;0.00;;;;;12.03;74.06;99448.41;5076985;28;46210;-78
2021/11/02 11:12:35;;;;;;;;;1.25;0.75;;;;;12.07;74.33;99452.38;5076167;28;47220;-74
2021/11/02 11:15:07;;;;;;;;;1.00;1.00;;;;;12.11;73.78;99453.72;5076206;28;45537;-77
2021/11/02 11:17:34;;;;;;;;;1.75;1.00;;;;;12.10;74.19;99450.28;5076388;28;45819;-76
2021/11/02 11:20:11;;;;;;;;;1.00;0.00;;;;;12.16;73.25;99451.47;5076127;28;46505;-76
2021/11/02 11:22:40;;;;;;;;;0.00;0.00;;;;;12.18;73.38;99454.78;5076014;28;46996;-77
2021/11/02 11:25:10;;;;;;;;;0.00;0.00;;;;;12.26;73.60;99448.78;5076801;28;45647;-78
2021/11/02 11:27:43;;;;;;;;;0.00;0.00;;;;;12.36;73.78;99445.13;5077219;28;45729;-80
2021/11/02 11:30:09;;;;;;;;;0.00;0.00;;;;;12.42;73.26;99439.28;5076906;28;46863;-78
2021/11/02 11:32:38;;;;;;;;;0.50;0.00;;;;;12.47;73.07;99437.03;5076744;28;45654;-79
2021/11/02 11:35:05;;;;;;;;;0.00;0.00;;;;;12.50;73.42;99433.28;5076667;28;45474;-80
2021/11/02 11:37:39;;;;;;;;;0.75;0.50;;;;;12.59;73.23;99433.19;5076964;28;45694;-77
2021/11/02 11:40:06;;;;;;;;;1.75;0.25;;;;;12.66;73.06;99435.22;5057334;28;46239;-76
2021/11/02 11:42:34;;;;;;;;;1.50;0.00;;;;;12.69;72.67;99429.66;5076733;28;45542;-82
2021/11/02 11:45:29;;;;;;;;;1.00;1.00;;;;;12.77;72.52;99435.00;5076589;28;45601;-75
2021/11/02 11:48:17;;;;;;;;;0.25;0.25;;;;;12.84;72.64;99430.78;5074173;28;45839;-77
2021/11/02 11:50:43;;;;;;;;;1.00;1.00;;;;;12.91;72.71;99432.63;5076440;28;45950;-78
2021/11/02 11:53:15;;;;;;;;;1.00;1.00;;;;;12.87;72.03;99436.56;5076076;28;46222;-77
2021/11/02 11:55:46;;;;;;;;;1.00;1.00;;;;;12.88;72.03;99427.69;5076061;28;45597;-77
2021/11/02 12:01:40;;;;;;;;;0.00;0.00;;;;;12.99;71.52;99416.94;5074179;28;46062;-78
2021/11/02 12:04:12;;;;;;;;;0.00;0.00;;;;;12.99;70.66;99422.19;5075072;28;45629;-77
2021/11/02 12:06:58;;;;;;;;;1.00;0.00;;;;;12.90;71.08;99417.84;5076200;28;45691;-76
2021/11/02 12:09:26;;;;;;;;;1.00;0.00;;;;;12.88;70.91;99413.72;5076136;28;45690;-77
2021/11/02 12:12:04;;;;;;;;;0.00;0.00;;;;;12.90;71.22;99409.97;5075692;28;47309;-77
2021/11/02 12:17:59;;;;;;;;;0.25;0.00;;;;;13.00;71.25;99402.00;5075459;28;45733;-76
2021/11/02 12:20:29;;;;;;;;;1.50;1.00;;;;;13.08;71.13;99401.22;5076155;28;45479;-77
2021/11/02 12:23:12;;;;;;;;;0.75;0.75;;;;;13.09;71.51;99398.44;5075867;28;45679;-78
2021/11/02 12:25:46;;;;;;;;;0.75;0.25;;;;;13.21;71.29;99405.13;5056960;28;46812;-77
2021/11/02 12:28:43;;;;;;;;;0.00;0.00;;;;;13.30;70.96;99401.56;5075303;28;45568;-76
2021/11/02 12:31:14;;;;;;;;;0.00;0.00;;;;;13.36;70.23;99400.94;5067759;28;45522;-77
2021/11/02 12:33:48;;;;;;;;;0.00;0.00;;;;;13.42;70.44;99400.31;5075473;28;46623;-77
2021/11/02 12:36:25;;;;;;;;;0.00;0.00;;;;;13.46;70.09;99398.19;5077179;28;45711;-76
2021/11/02 12:39:05;;;;;;;;;0.00;0.00;;;;;13.47;69.27;99399.00;5078985;28;45545;-78
2021/11/02 12:41:31;;;;;;;;;1.00;0.00;;;;;13.50;69.92;99396.88;5078760;28;45910;-77
2021/11/02 12:44:08;;;;;;;;;0.25;0.00;;;;;13.53;69.88;99393.94;5078362;28;45886;-76
2021/11/02 12:46:41;;;;;;;;;0.00;0.00;;;;;13.52;69.80;99396.72;5076025;28;45565;-76
2021/11/02 12:49:08;;;;;;;;;0.00;0.00;;;;;13.53;69.37;99393.13;5075139;28;45660;-74
2021/11/02 12:51:38;;;;;;;;;0.00;0.00;;;;;13.46;69.74;99371.88;5075456;28;45565;-76
2021/11/02 12:54:08;;;;;;;;;0.00;0.00;;;;;13.53;68.85;99388.69;5074889;28;45556;-78
2021/11/02 12:56:35;;;;;;;;;0.00;0.00;;;;;13.53;68.94;99379.97;5075447;28;45696;-77
2021/11/02 12:59:17;;;;;;;;;0.25;0.00;;;;;13.59;69.33;99376.69;5074787;28;45766;-77
2021/11/02 13:01:43;;;;;;;;;1.00;0.00;;;;;13.63;69.06;99384.13;5074662;28;45659;-76
2021/11/02 13:04:10;;;;;;;;;0.00;0.00;;;;;13.64;68.95;99387.56;5056490;28;47963;-76
2021/11/02 13:06:58;;;;;;;;;0.00;0.00;;;;;13.64;68.75;99377.03;5075967;28;45960;-77
2021/11/02 13:09:32;;;;;;;;;0.25;0.00;;;;;13.54;68.60;99374.53;5074451;28;45717;-77
2021/11/02 13:12:10;;;;;;;;;0.00;0.00;;;;;13.55;68.77;99370.13;5074055;28;45614;-76
2021/11/02 13:14:45;;;;;;;;;0.00;0.00;;;;;13.50;68.78;99356.56;5074008;28;47760;-77
2021/11/02 13:17:13;;;;;;;;;0.00;0.00;;;;;13.59;69.03;99364.38;5074664;28;46165;-78
2021/11/02 13:19:42;;;;;;;;;0.75;0.00;;;;;13.65;68.95;99368.16;5074214;28;45647;-77
2021/11/02 13:22:09;;;;;;;;;0.75;0.00;;;;;13.70;68.62;99369.34;5074554;28;45734;-76
2021/11/02 13:24:35;;;;;;;;;0.00;0.00;;;;;13.72;68.22;99379.69;5073964;28;47349;-76
2021/11/02 13:27:00;;;;;;;;;0.00;0.00;;;;;13.72;67.34;99369.16;5074111;28;45598;-78
2021/11/02 13:29:27;;;;;;;;;0.25;0.00;;;;;13.77;68.56;99369.50;5056109;28;45690;-75
2021/11/02 13:32:00;;;;;;;;;0.75;0.00;;;;;13.84;67.86;99360.81;5074734;28;45530;-76
2021/11/02 13:34:39;;;;;;;;;1.00;0.00;;;;;13.88;68.00;99362.13;5074128;28;46492;-75
2021/11/02 13:37:18;;;;;;;;;0.00;0.00;;;;;13.91;68.18;99355.75;5074438;28;46009;-78
2021/11/02 13:40:02;;;;;;;;;0.75;0.75;;;;;13.92;68.11;99346.03;5074606;28;45451;-80
2021/11/02 13:42:53;;;;;;;;;1.00;1.00;;;;;13.94;67.86;99342.25;5074262;28;45601;-77
2021/11/02 13:48:41;;;;;;;;;0.00;0.00;;;;;13.92;67.68;99331.06;5074315;28;45960;-75
2021/11/02 13:51:09;;;;;;;;;0.00;0.00;;;;;13.97;67.82;99339.31;5074000;28;45560;-77
2021/11/02 13:53:35;;;;;;;;;0.00;0.00;;;;;13.98;67.65;99353.31;5074154;28;45570;-78
2021/11/02 13:56:04;;;;;;;;;1.00;0.00;;;;;13.98;67.89;99345.41;5073302;28;46420;-77
2021/11/02 13:58:30;;;;;;;;;0.00;0.00;;;;;13.97;67.75;99347.19;5074203;28;46596;-76
2021/11/02 14:04:59;;;;;;;;;0.75;0.00;;;;;13.92;67.10;99346.03;5073514;28;45754;-77
2021/11/02 14:07:32;;;;;;;;;0.00;0.00;;;;;13.90;67.38;99353.25;5074455;28;46407;-77
2021/11/02 14:10:02;;;;;;;;;0.00;0.00;;;;;13.87;67.66;99338.63;5073840;28;47467;-75
2021/11/02 14:12:39;;;;;;;;;0.25;0.00;;;;;13.93;67.37;99342.44;5073765;28;45697;-77
2021/11/02 14:18:32;;;;;;;;;0.00;0.00;;;;;13.99;66.96;99333.84;5078409;28;45749;-76
2021/11/02 14:20:57;;;;;;;;;0.00;0.00;;;;;14.05;66.91;99331.41;5080390;28;45768;-74
2021/11/02 14:23:39;;;;;;;;;0.00;0.00;;;;;14.10;66.94;99330.91;5080121;28;45507;-75
2021/11/02 14:26:47;;;;;;;;;0.00;0.00;;;;;14.11;66.91;99333.38;5079838;28;45800;-77
2021/11/02 14:29:11;;;;;;;;;0.00;0.00;;;;;14.18;67.24;99337.03;5076790;28;47178;-75
2021/11/02 14:31:40;;;;;;;;;2.00;0.00;;;;;14.24;67.67;99336.38;5077402;28;45920;-74
2021/11/02 14:34:10;;;;;;;;;1.00;0.25;;;;;14.25;67.04;99339.84;5058675;28;45617;-76
2021/11/02 14:36:40;;;;;;;;;0.00;0.00;;;;;14.28;67.04;99340.31;5077574;28;45566;-76
2021/11/02 14:39:11;;;;;;;;;0.00;0.00;;;;;14.30;67.42;99340.97;5077629;28;46478;-76
2021/11/02 14:41:45;;;;;;;;;0.00;0.00;;;;;14.36;67.27;99341.34;5077583;28;45984;-76
2021/11/02 14:50:54;;;;;;;;;1.00;0.00;;;;;14.38;66.92;99334.91;5077042;28;46022;-75
2021/11/02 14:53:29;;;;;;;;;0.50;0.00;;;;;14.32;66.61;99343.44;5077147;28;45956;-78
2021/11/02 14:56:28;;;;;;;;;0.00;0.00;;;;;14.26;66.17;99341.47;5077096;28;45688;-78
2021/11/02 14:59:04;;;;;;;;;0.00;0.00;;;;;14.22;66.15;99346.25;5034643;28;45726;-75
2021/11/02 15:01:32;;;;;;;;;1.00;0.00;;;;;14.22;66.43;99338.34;5034324;28;46312;-74
2021/11/02 15:04:14;;;;;;;;;0.00;0.00;;;;;14.20;66.06;99336.84;5033769;28;46188;-76
2021/11/02 15:06:46;;;;;;;;;0.00;0.00;;;;;14.14;66.76;99327.78;5034864;28;45736;-77
2021/11/02 15:09:14;;;;;;;;;2.00;0.50;;;;;14.19;66.74;99338.69;5034630;28;45721;-75
2021/11/02 15:11:42;;;;;;;;;0.25;0.00;;;;;14.18;66.62;99337.03;5034705;28;46296;-75
2021/11/02 15:14:22;;;;;;;;;0.00;0.00;;;;;14.14;66.20;99325.16;5034019;28;46189;-78
2021/11/02 15:17:11;;;;;;;;;0.25;0.00;;;;;14.14;66.53;99333.06;4974663;28;45673;-76
2021/11/02 15:19:39;;;;;;;;;0.00;0.00;;;;;14.11;66.61;99327.28;4974804;28;45577;-75
2021/11/02 15:22:07;;;;;;;;;0.00;0.00;;;;;14.09;66.36;99327.44;4974491;28;46878;-75
2021/11/02 15:24:38;;;;;;;;;0.00;0.00;;;;;14.01;66.43;99316.91;4974494;28;46237;-75
2021/11/02 15:27:09;;;;;;;;;0.00;0.00;;;;;14.10;67.22;99329.09;4974579;28;45685;-76
2021/11/02 15:32:56;;;;;;;;;0.00;0.00;;;;;14.10;67.03;99323.84;4974136;28;45684;-75
2021/11/02 15:35:24;;;;;;;;;0.50;0.00;;;;;14.03;66.94;99317.59;4985025;28;45924;-73
2021/11/02 15:37:55;;;;;;;;;0.25;0.00;;;;;14.02;66.45;99321.22;5013760;28;45757;-73
2021/11/02 15:40:37;;;;;;;;;0.00;0.00;;;;;13.91;66.95;99312.78;5013199;28;45979;-76
2021/11/02 15:43:05;;;;;;;;;0.00;0.00;;;;;13.88;66.55;99320.00;4998431;28;46994;-77
2021/11/02 15:48:54;;;;;;;;;1.00;0.00;;;;;13.66;67.30;99306.63;5072291;28;45505;-77
2021/11/02 15:51:21;;;;;;;;;1.00;0.00;;;;;13.74;68.26;99319.81;5076199;28;45832;-75
2021/11/02 15:53:47;;;;;;;;;2.00;1.00;;;;;13.75;68.24;99322.31;5075659;28;47483;-77
2021/11/02 15:56:12;;;;;;;;;3.00;1.00;;;;;13.77;67.74;99315.06;5077250;28;45664;-74
2021/11/02 15:58:38;;;;;;;;;0.25;0.25;;;;;13.71;67.86;99314.91;5076941;28;45644;-75
2021/11/02 16:04:25;;;;;;;;;1.00;1.00;;;;;13.76;68.68;99304.72;5080599;28;45700;-79
2021/11/02 16:07:03;;;;;;;;;1.00;1.00;;;;;13.76;68.60;99305.53;5082133;28;46453;-77
2021/11/02 16:09:52;;;;;;;;;1.25;1.00;;;;;13.76;68.64;99304.72;5077943;28;45615;-76
2021/11/02 16:12:42;;;;;;;;;2.75;2.25;;;;;13.69;68.15;99301.06;5076511;28;45533;-79
2021/11/02 16:15:14;;;;;;;;;3.00;2.00;;;;;13.70;68.28;99310.63;5076135;28;45570;-79
2021/11/02 16:17:46;;;;;;;;;2.00;1.00;;;;;13.69;68.75;99298.44;5075691;28;46376;-76
2021/11/02 16:20:26;;;;;;;;;4.00;3.75;;;;;13.61;68.56;99293.97;5075700;28;45532;-77
2021/11/02 16:22:58;;;;;;;;;3.50;2.50;;;;;13.62;68.59;99305.31;5075815;28;45604;-78
2021/11/02 16:25:26;;;;;;;;;3.00;1.00;;;;;13.57;68.28;99300.53;5075315;28;46686;-76
2021/11/02 16:27:58;;;;;;;;;1.00;1.00;;;;;13.52;68.46;99297.56;5075652;28;46358;-78
2021/11/02 16:30:27;;;;;;;;;2.00;2.00;;;;;13.51;68.34;99297.72;5075205;28;45779;-77
2021/11/02 16:32:55;;;;;;;;;2.75;1.00;;;;;13.45;68.59;99292.09;5075401;28;45584;-80
2021/11/02 16:35:44;;;;;;;;;1.00;1.00;;;;;13.39;69.12;99300.63;5075362;28;45648;-76
2021/11/02 16:38:19;;;;;;;;;1.50;1.00;;;;;13.37;68.76;99291.25;5075668;28;46540;-77
2021/11/02 16:40:51;;;;;;;;;1.00;1.00;;;;;13.34;69.12;99295.03;5075477;28;45688;-79
2021/11/02 16:43:28;;;;;;;;;1.00;1.00;;;;;13.31;69.26;99292.72;5075338;28;45654;-77
2021/11/02 16:45:54;;;;;;;;;2.00;1.25;;;;;13.35;69.09;99298.47;5074951;28;47455;-75
2021/11/02 16:48:38;;;;;;;;;3.75;2.00;;;;;13.30;69.19;99274.47;5075200;28;46189;-74
2021/11/02 16:51:04;;;;;;;;;2.75;2.00;;;;;13.31;69.72;99289.25;5074395;28;45743;-77
2021/11/02 16:53:29;;;;;;;;;1.50;1.50;;;;;13.16;69.64;99264.56;5075349;28;45559;-76
2021/11/02 16:56:00;;;;;;;;;3.00;2.00;;;;;13.28;69.92;99281.72;5075254;28;46819;-78
2021/11/02 16:58:28;;;;;;;;;2.00;2.00;;;;;13.28;69.87;99274.63;5056837;28;46655;-78
2021/11/02 17:01:22;;;;;;;;;3.50;2.50;;;;;13.29;69.42;99280.69;5074910;28;45710;-77
2021/11/02 17:03:50;;;;;;;;;4.25;3.00;;;;;13.29;69.83;99278.06;5075093;28;45700;-76
2021/11/02 17:06:28;;;;;;;;;3.00;3.00;;;;;13.28;69.83;99273.81;5075646;28;46985;-76
2021/11/02 17:09:02;;;;;;;;;2.50;2.50;;;;;13.24;69.81;99281.19;5074857;28;47372;-77
2021/11/02 17:11:29;;;;;;;;;3.25;3.25;;;;;13.22;69.75;99280.53;5075220;28;45597;-77
2021/11/02 17:13:56;;;;;;;;;7.25;4.75;;;;;13.22;69.72;99266.56;5075275;28;45633;-78
2021/11/02 17:16:26;;;;;;;;;6.25;6.25;;;;;13.18;70.25;99280.97;5074590;28;46399;-77
2021/11/02 17:19:04;;;;;;;;;8.25;8.00;;;;;13.18;70.08;99276.56;5074985;28;46018;-78
2021/11/02 17:21:36;;;;;;;;;4.75;4.00;;;;;13.18;69.80;99280.97;5075210;28;45642;-74
2021/11/02 17:24:03;;;;;;;;;3.50;3.50;;;;;13.14;70.46;99285.75;5074518;28;45609;-78
2021/11/02 17:26:31;;;;;;;;;22.25;20.25;;;;;13.12;70.54;99269.28;5074354;28;46477;-76
2021/11/02 17:28:57;;;;;;;;;14.00;12.25;;;;;13.15;70.39;99268.16;5074446;28;47187;-77
2021/11/02 17:31:37;;;;;;;;;9.00;8.00;;;;;13.14;70.03;99264.72;5074146;28;45698;-77
2021/11/02 17:34:10;;;;;;;;;6.25;6.00;;;;;13.11;69.99;99267.63;5074660;28;45728;-77
2021/11/02 17:36:36;;;;;;;;;3.25;2.75;;;;;13.07;70.08;99273.34;5074305;28;47618;-78
2021/11/02 17:39:04;;;;;;;;;4.00;4.00;;;;;13.04;70.28;99275.31;5077976;28;46247;-76
2021/11/02 17:41:32;;;;;;;;;4.75;4.75;;;;;13.03;70.65;99270.22;5079669;28;45631;-76
2021/11/02 17:43:58;;;;;;;;;4.50;4.00;;;;;13.03;70.34;99271.03;5078578;28;45539;-75
2021/11/02 17:46:23;;;;;;;;;4.00;4.00;;;;;13.03;70.66;99278.09;5079885;28;47405;-76
2021/11/02 17:48:51;;;;;;;;;6.25;6.25;;;;;13.02;70.34;99272.00;5078098;28;47089;-73
2021/11/02 17:51:16;;;;;;;;;7.75;4.50;;;;;12.98;70.45;99264.59;5078159;28;45692;-76
2021/11/02 17:53:42;;;;;;;;;15.75;14.00;;;;;13.03;70.74;99278.09;5078243;28;45621;-77
2021/11/02 17:56:11;;;;;;;;;5.00;4.00;;;;;13.02;70.32;99279.06;5077431;28;46493;-76
2021/11/02 17:58:39;;;;;;;;;3.75;3.50;;;;;12.99;70.32;99276.78;5074161;28;47244;-79
2021/11/02 18:01:06;;;;;;;;;4.00;4.00;;;;;12.98;70.57;99285.63;5073923;28;45662;-78
2021/11/02 18:03:37;;;;;;;;;12.50;9.50;;;;;12.98;70.66;99283.00;5077157;28;45577;-78
2021/11/02 18:06:05;;;;;;;;;5.00;5.00;;;;;12.97;70.71;99279.56;5077871;28;46592;-76